14°C Temp
10°C Dewpoint
77% Humidity
Temperature
27 KM/H
17 MPH
15 KTS
210°
South South
West

Wind Speed
Partly Cloudy
Conditions
Pressure 1024.04 (hPa) - 30.24 (in)
Visibility 6.0 (mi) - 9.7 (km)

Current Conditions
LECO
Location 50(km)
Metar :LECO 211100Z 21015KT 9999 FEW020 14/10 Q1024 NOSIG
Wed 21st February 12:00 pm

Airport
  Metar Aviation API Data Provided by https://www.checkwx.com/ PHP scripts by weather34.com ©2024